Time;durP1;ratioP1;P1;durP2;ratioP2;P2;SDS_P1;SDS_P2;PMS_P1;PMS_P2;Temp;Humidity;BMP_temperature;BMP_pressure;BME280_temperature;BME280_humidity;BME280_pressure;Samples;Min_cycle;Max_cycle;Signal;HPM_P1;HPM_P2
2021/04/18 06:00:41;;;;;;;52.53;15.98;;;;;;;5.26;88.11;100720.66;1777767;76;27196;-63
2021/04/18 06:03:08;;;;;;;67.87;17.02;;;;;;;5.30;88.49;100711.00;1750751;81;25527;-63
2021/04/18 06:05:35;;;;;;;55.38;17.12;;;;;;;5.36;88.68;100713.16;1736377;81;25505;-63
2021/04/18 06:08:03;;;;;;;47.30;16.80;;;;;;;5.41;88.61;100719.36;1762841;81;26616;-63
2021/04/18 06:10:34;;;;;;;39.08;16.42;;;;;;;5.46;88.63;100715.86;1748186;81;25273;-63
2021/04/18 06:13:00;;;;;;;44.33;17.02;;;;;;;5.50;88.58;100716.14;1713114;83;25292;-63
2021/04/18 06:15:30;;;;;;;66.53;19.40;;;;;;;5.58;88.83;100716.97;1723067;82;25516;-63
2021/04/18 06:17:57;;;;;;;44.40;17.55;;;;;;;5.66;89.12;100727.19;1723132;83;25496;-64
2021/04/18 06:20:23;;;;;;;33.28;18.15;;;;;;;5.74;89.08;100717.83;1723053;83;25720;-64
2021/04/18 06:22:50;;;;;;;48.25;18.60;;;;;;;5.86;89.61;100720.27;1717138;82;25371;-63
2021/04/18 06:25:17;;;;;;;46.60;20.90;;;;;;;5.95;89.31;100720.79;1722739;83;25625;-64
2021/04/18 06:27:44;;;;;;;39.08;19.27;;;;;;;6.03;89.12;100714.64;1723018;83;25548;-64
2021/04/18 06:30:13;;;;;;;49.60;18.17;;;;;;;6.11;89.19;100716.80;1723143;83;25520;-65
2021/04/18 06:32:40;;;;;;;36.05;18.73;;;;;;;6.19;89.17;100711.44;1723252;83;25876;-64
2021/04/18 06:35:09;;;;;;;52.60;18.12;;;;;;;6.26;89.00;100712.77;1723039;83;25447;-64
2021/04/18 06:37:35;;;;;;;37.78;17.60;;;;;;;6.35;89.08;100714.37;1753379;81;25301;-65
2021/04/18 06:40:06;;;;;;;40.92;17.10;;;;;;;6.41;88.81;100707.92;1754628;81;25269;-65
2021/04/18 06:42:36;;;;;;;46.35;18.05;;;;;;;6.48;88.69;100709.79;1754295;81;25392;-63
2021/04/18 06:45:07;;;;;;;28.80;16.93;;;;;;;6.53;88.34;100713.02;1754731;81;25933;-64
2021/04/18 06:47:39;;;;;;;31.90;16.60;;;;;;;6.56;88.12;100711.69;1754545;81;25314;-64
2021/04/18 06:50:10;;;;;;;36.00;18.23;;;;;;;6.61;88.13;100713.81;1747524;81;25541;-64
2021/04/18 06:52:37;;;;;;;32.83;18.65;;;;;;;6.68;88.19;100718.36;1729699;81;25626;-63
2021/04/18 06:55:09;;;;;;;35.40;19.45;;;;;;;6.77;88.18;100714.58;1745774;81;25647;-63
2021/04/18 06:57:36;;;;;;;29.65;18.23;;;;;;;6.87;88.73;100719.13;1736226;81;25779;-63
2021/04/18 07:00:07;;;;;;;33.48;19.07;;;;;;;6.98;88.86;100715.86;1738278;81;25494;-64
2021/04/18 07:02:35;;;;;;;35.35;18.90;;;;;;;7.06;88.64;100718.78;1733742;81;25549;-64
2021/04/18 07:05:09;;;;;;;30.82;16.65;;;;;;;7.16;88.54;100718.50;1732393;82;25443;-64
2021/04/18 07:07:40;;;;;;;26.15;16.50;;;;;;;7.21;87.88;100719.82;1731629;82;25659;-64
2021/04/18 07:10:13;;;;;;;25.45;15.28;;;;;;;7.26;87.84;100719.80;1728079;81;26668;-64
2021/04/18 07:12:42;;;;;;;32.08;16.80;;;;;;;7.31;87.66;100723.02;1679581;83;26400;-64
2021/04/18 07:15:10;;;;;;;30.82;16.82;;;;;;;7.37;87.57;100716.50;1673110;84;25639;-64
2021/04/18 07:17:48;;;;;;;28.20;16.55;;;;;;;7.44;87.60;100712.97;1662819;85;25564;-64
2021/04/18 07:20:17;;;;;;;40.10;23.25;;;;;;;7.48;87.48;100720.77;1677760;84;25311;-64
2021/04/18 07:22:44;;;;;;;29.82;17.15;;;;;;;7.59;87.84;100720.16;1668005;84;25730;-64
2021/04/18 07:25:11;;;;;;;27.98;17.57;;;;;;;7.62;87.30;100721.75;1659785;85;25607;-64
2021/04/18 07:27:49;;;;;;;46.95;27.85;;;;;;;7.72;87.58;100723.59;1638704;85;25518;-64
2021/04/18 07:30:22;;;;;;;59.27;32.95;;;;;;;7.76;87.43;100724.63;1632979;86;25538;-65
2021/04/18 07:33:06;;;;;;;27.98;17.52;;;;;;;7.88;87.62;100733.70;1666395;84;25811;-63
2021/04/18 07:35:37;;;;;;;27.80;16.90;;;;;;;7.94;87.53;100721.02;1671004;84;27668;-64
2021/04/18 07:38:24;;;;;;;25.17;17.17;;;;;;;8.00;87.11;100727.97;1655278;84;25554;-65
2021/04/18 07:40:56;;;;;;;24.65;16.37;;;;;;;8.10;87.20;100723.05;1666145;84;25610;-65
2021/04/18 07:43:24;;;;;;;28.30;19.57;;;;;;;8.20;87.38;100719.72;1676502;84;25587;-64
2021/04/18 07:45:52;;;;;;;27.07;17.75;;;;;;;8.30;87.20;100720.73;1672996;84;25704;-64
2021/04/18 07:48:19;;;;;;;23.22;16.23;;;;;;;8.39;86.82;100718.50;1728012;82;26651;-64
2021/04/18 07:50:48;;;;;;;21.52;15.20;;;;;;;8.44;86.58;100717.66;1720768;82;25651;-66
2021/04/18 07:53:21;;;;;;;27.40;18.50;;;;;;;8.53;86.88;100717.33;1708058;83;25578;-65
2021/04/18 07:55:48;;;;;;;24.27;16.27;;;;;;;8.64;86.67;100708.58;1713520;83;25607;-64
2021/04/18 07:58:15;;;;;;;25.40;16.35;;;;;;;8.74;86.19;100711.17;1708792;83;25378;-66
2021/04/18 08:00:42;;;;;;;24.40;16.55;;;;;;;8.83;86.18;100711.89;1680702;83;25728;-65
2021/04/18 08:03:15;;;;;;;27.55;17.85;;;;;;;8.91;86.14;100717.45;1672774;83;25635;-66
2021/04/18 08:05:44;;;;;;;24.87;17.02;;;;;;;9.00;86.00;100716.27;1689472;83;25646;-65
2021/04/18 08:08:16;;;;;;;27.73;19.57;;;;;;;9.09;85.77;100715.09;1684097;83;25535;-66
2021/04/18 08:10:47;;;;;;;21.97;15.23;;;;;;;9.18;85.58;100714.72;1723384;81;25301;-65
2021/04/18 08:13:24;;;;;;;27.25;18.23;;;;;;;9.30;85.41;100718.36;1705458;83;25707;-66
2021/04/18 08:16:06;;;;;;;20.88;14.83;;;;;;;9.43;85.71;100718.17;1725602;83;25670;-65
2021/04/18 08:18:46;;;;;;;19.32;14.20;;;;;;;9.57;85.30;100715.55;1729172;81;25613;-66
2021/04/18 08:21:38;;;;;;;22.55;14.47;;;;;;;9.69;85.13;100718.09;1726429;83;25555;-66
2021/04/18 08:24:25;;;;;;;18.05;13.28;;;;;;;9.80;84.81;100722.78;1719344;83;25526;-66
2021/04/18 08:27:11;;;;;;;18.87;13.62;;;;;;;9.87;84.64;100725.11;1630579;87;25813;-66
2021/04/18 08:30:03;;;;;;;19.73;13.15;;;;;;;9.92;84.34;100720.98;1630411;88;25386;-66
2021/04/18 08:32:51;;;;;;;19.90;14.33;;;;;;;9.98;84.17;100724.43;1630477;88;25312;-66
2021/04/18 08:35:22;;;;;;;16.85;12.60;;;;;;;10.03;83.95;100725.70;1636609;87;25612;-65
2021/04/18 08:38:19;;;;;;;18.90;13.20;;;;;;;10.19;83.88;100726.25;1889058;76;34929;-66
2021/04/18 08:40:47;;;;;;;18.17;12.90;;;;;;;10.18;83.48;100723.28;1859980;77;25477;-67
2021/04/18 08:43:27;;;;;;;45.90;25.80;;;;;;;10.28;83.53;100727.16;1859926;77;25860;-66
2021/04/18 08:45:57;;;;;;;19.60;14.70;;;;;;;10.38;83.47;100720.27;1850874;75;25246;-66
2021/04/18 08:48:25;;;;;;;17.17;12.82;;;;;;;10.44;82.98;100719.64;1850394;77;25610;-66
2021/04/18 08:50:59;;;;;;;15.80;12.40;;;;;;;10.51;83.15;100730.08;1826257;78;25484;-66
2021/04/18 08:53:27;;;;;;;17.85;12.88;;;;;;;10.53;82.66;100720.55;1832361;77;25570;-66
2021/04/18 08:56:02;;;;;;;15.95;12.85;;;;;;;10.60;82.66;100715.55;1859939;77;25690;-66
2021/04/18 08:58:38;;;;;;;23.52;16.97;;;;;;;10.76;83.04;100716.08;1860087;76;25467;-66
2021/04/18 09:01:11;;;;;;;18.77;14.18;;;;;;;10.97;82.71;100717.04;1834070;77;25674;-67
2021/04/18 09:03:41;;;;;;;17.05;12.95;;;;;;;11.15;82.35;100719.38;1764261;81;25279;-67
2021/04/18 09:08:51;;;;;;;14.45;10.93;;;;;;;11.38;81.29;100716.20;1886530;75;34618;-67
2021/04/18 09:11:20;;;;;;;12.73;9.80;;;;;;;11.52;81.73;100712.09;1838313;77;25317;-66
2021/04/18 09:13:59;;;;;;;14.20;10.93;;;;;;;11.80;81.02;100714.72;1826550;78;25750;-66
2021/04/18 09:16:38;;;;;;;17.50;12.43;;;;;;;12.04;80.76;100717.19;1829994;77;25259;-67
2021/04/18 09:19:28;;;;;;;12.63;9.60;;;;;;;12.24;80.10;100711.27;1860139;77;25424;-66
2021/04/18 09:25:00;;;;;;;12.35;9.53;;;;;;;13.88;81.84;100712.63;1864406;75;34996;-66
2021/04/18 09:27:36;;;;;;;14.10;9.70;;;;;;;14.16;79.97;100706.25;1849529;76;25572;-68
2021/04/18 09:30:13;;;;;;;13.05;9.18;;;;;;;14.52;78.85;100711.05;1847883;77;25691;-67
2021/04/18 09:32:45;;;;;;;9.48;8.40;;;;;;;14.93;78.30;100696.83;1855591;77;25288;-68
2021/04/18 09:35:15;;;;;;;10.38;8.33;;;;;;;15.85;79.49;100706.17;1858036;77;25441;-68
2021/04/18 09:37:59;;;;;;;11.15;8.30;;;;;;;16.73;77.80;100700.56;1852890;77;25308;-70
2021/04/18 09:40:30;;;;;;;9.93;7.95;;;;;;;17.60;76.85;100705.39;1828084;76;25622;-66
2021/04/18 09:42:58;;;;;;;9.98;8.13;;;;;;;18.44;74.27;100714.17;1823846;77;25689;-65
2021/04/18 09:45:28;;;;;;;10.00;8.40;;;;;;;18.91;70.29;100715.92;1819452;78;25326;-65
2021/04/18 09:48:00;;;;;;;9.90;8.13;;;;;;;18.87;67.87;100712.31;1820273;77;25267;-65
2021/04/18 09:50:35;;;;;;;11.05;8.08;;;;;;;18.82;66.30;100709.22;1835850;77;25504;-65
2021/04/18 09:53:18;;;;;;;8.23;7.40;;;;;;;18.86;65.65;100706.02;1859296;77;25460;-65
2021/04/18 09:56:03;;;;;;;8.33;7.42;;;;;;;19.13;65.32;100707.63;1859924;77;25673;-65
2021/04/18 09:58:38;;;;;;;9.35;7.65;;;;;;;19.54;65.43;100708.12;1852256;77;25303;-66
2021/04/18 10:01:28;;;;;;;7.70;6.90;;;;;;;19.89;63.23;100703.18;1842816;76;25616;-66
2021/04/18 10:03:55;;;;;;;9.50;7.22;;;;;;;20.26;63.61;100702.11;1846094;77;25321;-65
2021/04/18 10:06:23;;;;;;;10.72;8.18;;;;;;;20.58;62.16;100705.98;1859026;77;25525;-63
2021/04/18 10:09:02;;;;;;;7.53;6.70;;;;;;;20.89;61.99;100700.83;1859962;77;26187;-63
2021/04/18 10:11:29;;;;;;;8.10;7.30;;;;;;;21.32;61.63;100700.66;1859661;77;25254;-67
2021/04/18 10:14:00;;;;;;;8.63;7.67;;;;;;;21.51;57.90;100698.97;1854472;77;25297;-67
2021/04/18 10:16:40;;;;;;;7.30;6.60;;;;;;;21.50;57.64;100700.12;1826228;78;25441;-67
2021/04/18 10:19:20;;;;;;;8.00;7.17;;;;;;;21.73;55.85;100702.77;1826040;78;25299;-66
2021/04/18 10:22:08;;;;;;;6.90;6.17;;;;;;;21.74;55.37;100697.46;1826274;78;25739;-68
2021/04/18 10:24:50;;;;;;;8.15;7.33;;;;;;;21.78;56.16;100695.56;1826066;78;25410;-66
2021/04/18 10:27:23;;;;;;;8.65;7.75;;;;;;;21.99;53.95;100697.16;1835712;77;25425;-67
2021/04/18 10:29:51;;;;;;;8.30;7.42;;;;;;;21.91;52.81;100696.08;1859863;77;25564;-66
2021/04/18 10:32:20;;;;;;;9.65;8.38;;;;;;;21.80;50.80;100696.75;1860039;77;25311;-67
2021/04/18 10:34:50;;;;;;;10.53;9.30;;;;;;;21.69;52.61;100693.10;1859497;77;25738;-68
2021/04/18 10:37:20;;;;;;;10.85;9.75;;;;;;;21.90;51.99;100693.92;1859213;77;25290;-68
2021/04/18 10:39:47;;;;;;;10.50;9.50;;;;;;;21.47;50.97;100692.05;1825559;78;25389;-69
2021/04/18 10:42:14;;;;;;;10.82;9.33;;;;;;;20.63;50.26;100690.58;1825278;78;25233;-69
2021/04/18 10:44:41;;;;;;;10.63;9.10;;;;;;;20.21;51.86;100689.23;1805172;78;25484;-69
2021/04/18 10:47:15;;;;;;;12.13;9.73;;;;;;;20.37;52.81;100687.19;1825730;77;25899;-69
2021/04/18 10:49:38;;;;;;;10.70;9.60;;;;;;;20.32;52.80;100686.91;1824915;78;25630;-69
2021/04/18 10:52:05;;;;;;;15.23;11.10;;;;;;;20.20;52.83;100682.96;1825618;78;25293;-69
2021/04/18 10:54:32;;;;;;;13.00;10.28;;;;;;;19.99;52.64;100683.94;1825666;77;25505;-69
2021/04/18 10:56:59;;;;;;;12.07;10.00;;;;;;;19.99;53.48;100684.75;1825454;78;25257;-69
2021/04/18 10:59:25;;;;;;;12.93;11.20;;;;;;;19.82;52.74;100679.12;1825781;77;25759;-71
2021/04/18 11:01:53;;;;;;;13.18;10.38;;;;;;;19.46;52.89;100678.38;1857295;77;25674;-70
2021/04/18 11:04:20;;;;;;;11.12;9.25;;;;;;;19.07;52.82;100676.95;1864336;77;25440;-70
2021/04/18 11:06:47;;;;;;;13.60;8.95;;;;;;;18.62;52.58;100672.73;1839637;76;25484;-68
2021/04/18 11:09:14;;;;;;;11.55;9.43;;;;;;;18.38;53.22;100673.70;1833759;76;25510;-69
2021/04/18 11:11:40;;;;;;;10.58;8.88;;;;;;;18.20;53.44;100674.05;1843552;77;25675;-70
2021/04/18 11:14:08;;;;;;;10.40;8.53;;;;;;;18.06;53.57;100672.28;1840411;77;25564;-69
2021/04/18 11:16:34;;;;;;;9.43;7.90;;;;;;;17.84;53.94;100663.48;1843005;77;25644;-70
2021/04/18 11:19:01;;;;;;;9.93;8.33;;;;;;;17.61;54.05;100663.81;1840095;77;25621;-70
2021/04/18 11:21:29;;;;;;;8.38;7.58;;;;;;;17.41;54.07;100662.84;1842678;77;25256;-70
2021/04/18 11:23:57;;;;;;;9.45;8.45;;;;;;;17.13;53.96;100667.70;1843617;77;25761;-70
2021/04/18 11:26:25;;;;;;;10.32;8.13;;;;;;;16.87;53.99;100666.68;1840061;77;25612;-69
2021/04/18 11:28:52;;;;;;;9.83;7.85;;;;;;;16.60;54.46;100663.45;1837469;77;25619;-69
2021/04/18 11:31:19;;;;;;;9.58;7.55;;;;;;;16.43;55.02;100668.01;1836421;77;25530;-70
2021/04/18 11:33:46;;;;;;;9.10;7.42;;;;;;;16.33;55.55;100662.99;1840133;77;25705;-70
2021/04/18 11:36:15;;;;;;;8.90;7.45;;;;;;;16.39;56.39;100658.09;1842355;77;25805;-69
2021/04/18 11:38:42;;;;;;;10.93;7.65;;;;;;;16.96;58.10;100655.08;1835140;77;25515;-68
2021/04/18 11:41:09;;;;;;;7.70;6.90;;;;;;;17.57;56.73;100656.88;1840239;77;26091;-69
2021/04/18 11:43:36;;;;;;;8.83;6.90;;;;;;;18.08;56.37;100653.56;1825513;78;25548;-69
2021/04/18 11:46:06;;;;;;;7.58;6.47;;;;;;;18.70;55.73;100642.20;1825655;78;25256;-69
2021/04/18 11:48:35;;;;;;;9.85;7.87;;;;;;;19.29;55.19;100641.20;1825458;78;26696;-69
2021/04/18 11:51:02;;;;;;;9.05;7.17;;;;;;;19.65;53.67;100641.92;1825598;78;25461;-69
2021/04/18 11:53:29;;;;;;;9.30;8.18;;;;;;;20.00;51.99;100650.63;1824833;78;25250;-67
2021/04/18 11:55:58;;;;;;;8.40;7.60;;;;;;;20.00;49.95;100645.13;1848532;77;25210;-66
2021/04/18 11:58:25;;;;;;;11.28;8.23;;;;;;;19.99;50.61;100638.64;1850343;77;25231;-67
2021/04/18 12:00:52;;;;;;;8.80;7.90;;;;;;;20.13;48.96;100636.16;1839536;77;25670;-67
2021/04/18 12:03:20;;;;;;;9.03;7.22;;;;;;;20.22;50.41;100636.70;1839993;77;25740;-66
2021/04/18 12:05:47;;;;;;;11.40;6.92;;;;;;;20.46;50.55;100634.73;1829444;77;25172;-69
2021/04/18 12:08:16;;;;;;;8.18;7.35;;;;;;;20.68;47.33;100638.05;1805053;78;25359;-68
2021/04/18 12:10:44;;;;;;;8.43;7.17;;;;;;;20.46;48.32;100636.89;1813615;79;25490;-67
2021/04/18 12:13:11;;;;;;;9.05;6.95;;;;;;;20.00;47.15;100638.86;1813755;79;26728;-69
2021/04/18 12:15:38;;;;;;;7.17;6.40;;;;;;;19.41;48.11;100630.08;1813675;79;25492;-68
2021/04/18 12:18:05;;;;;;;8.50;7.45;;;;;;;19.12;48.96;100627.33;1813535;78;25516;-66
2021/04/18 12:20:33;;;;;;;9.05;7.92;;;;;;;18.80;48.10;100634.22;1821939;77;25689;-69
2021/04/18 12:23:00;;;;;;;8.20;7.22;;;;;;;18.42;49.74;100630.76;1825504;78;25256;-69
2021/04/18 12:25:26;;;;;;;9.35;7.83;;;;;;;18.23;50.26;100626.78;1829476;78;26145;-69
2021/04/18 12:27:54;;;;;;;8.40;7.45;;;;;;;17.95;50.61;100635.65;1795196;79;25296;-68
2021/04/18 12:30:22;;;;;;;8.35;7.17;;;;;;;17.77;51.18;100633.76;1795280;79;25302;-68
2021/04/18 12:32:49;;;;;;;7.75;6.78;;;;;;;17.60;51.46;100626.65;1772952;79;25532;-65
2021/04/18 12:35:16;;;;;;;12.07;7.00;;;;;;;17.32;51.55;100625.50;1766243;81;25440;-65
2021/04/18 12:37:43;;;;;;;7.00;6.08;;;;;;;17.04;52.11;100619.97;1798167;79;26684;-65
2021/04/18 12:40:12;;;;;;;6.92;5.75;;;;;;;16.86;52.70;100622.76;1803446;79;25336;-66
2021/04/18 12:42:39;;;;;;;7.15;6.15;;;;;;;16.72;53.23;100618.96;1805224;79;25424;-66
2021/04/18 12:45:09;;;;;;;7.87;6.45;;;;;;;16.60;53.35;100615.12;1793508;79;25800;-66
2021/04/18 12:47:36;;;;;;;6.50;5.83;;;;;;;16.55;53.23;100619.98;1796265;79;25540;-64
2021/04/18 12:50:06;;;;;;;7.87;6.58;;;;;;;16.41;53.68;100615.69;1803813;79;25782;-63
2021/04/18 12:52:35;;;;;;;7.53;6.40;;;;;;;16.35;53.65;100615.67;1803994;79;25718;-66
2021/04/18 12:55:02;;;;;;;8.40;6.90;;;;;;;16.27;54.13;100607.02;1804091;79;25600;-65
2021/04/18 12:57:29;;;;;;;8.80;7.15;;;;;;;16.34;55.04;100610.55;1803909;79;25606;-64
2021/04/18 12:59:55;;;;;;;8.25;6.75;;;;;;;16.61;55.25;100614.54;1804407;79;25628;-64
2021/04/18 13:02:27;;;;;;;9.65;7.65;;;;;;;16.87;54.29;100611.47;1804630;79;25745;-64
2021/04/18 13:04:57;;;;;;;8.60;6.85;;;;;;;17.14;54.64;100606.41;1804929;79;25583;-64
2021/04/18 13:07:21;;;;;;;9.05;7.50;;;;;;;17.70;54.96;100605.05;1784221;79;25514;-64
2021/04/18 13:09:47;;;;;;;8.98;7.20;;;;;;;18.25;55.16;100605.89;1775797;79;25600;-65
2021/04/18 13:12:16;;;;;;;10.23;7.95;;;;;;;18.74;53.62;100602.75;1797038;79;25655;-65
2021/04/18 13:14:43;;;;;;;9.93;7.35;;;;;;;18.75;52.35;100594.77;1798287;79;25773;-65
2021/04/18 13:17:10;;;;;;;10.93;7.33;;;;;;;18.99;52.05;100602.56;1759262;79;25850;-66
2021/04/18 13:19:38;;;;;;;10.18;6.60;;;;;;;19.17;51.53;100596.88;1787290;79;25915;-65
2021/04/18 13:22:05;;;;;;;7.25;6.55;;;;;;;19.44;51.64;100596.22;1704293;83;25450;-65
2021/04/18 13:24:31;;;;;;;8.98;6.95;;;;;;;19.83;51.80;100593.45;1687610;84;25608;-64
2021/04/18 13:26:58;;;;;;;7.03;6.20;;;;;;;20.24;51.81;100593.77;1740133;82;25715;-64
2021/04/18 13:29:25;;;;;;;8.75;6.37;;;;;;;20.56;51.05;100592.89;1742219;82;26578;-65
2021/04/18 13:31:51;;;;;;;6.80;6.10;;;;;;;20.87;50.49;100597.31;1731881;82;25554;-65
2021/04/18 13:34:18;;;;;;;6.55;5.85;;;;;;;21.15;50.24;100596.10;1741043;81;25781;-65
2021/04/18 13:36:47;;;;;;;6.62;5.80;;;;;;;21.39;49.54;100595.41;1742566;82;25619;-65
2021/04/18 13:39:16;;;;;;;6.27;5.67;;;;;;;21.68;49.03;100598.52;1758060;77;25877;-65
2021/04/18 13:41:43;;;;;;;7.92;5.95;;;;;;;21.89;48.53;100594.57;1858206;77;25532;-65
2021/04/18 13:44:10;;;;;;;7.15;5.25;;;;;;;22.08;48.08;100594.94;1859043;77;25463;-64
2021/04/18 13:46:37;;;;;;;8.55;6.22;;;;;;;22.20;47.61;100596.05;1858792;77;25434;-64
2021/04/18 13:49:05;;;;;;;5.75;4.97;;;;;;;22.29;47.22;100594.38;1859158;77;25425;-65
2021/04/18 13:51:31;;;;;;;6.28;5.35;;;;;;;22.32;46.38;100590.86;1848086;76;25676;-64
2021/04/18 13:53:58;;;;;;;5.20;4.70;;;;;;;22.24;46.20;100591.94;1858710;77;25305;-64
2021/04/18 13:56:25;;;;;;;11.63;7.03;;;;;;;22.25;45.81;100587.22;1859050;77;25481;-65
2021/04/18 13:58:52;;;;;;;5.78;5.17;;;;;;;22.16;45.85;100589.70;1858642;76;25435;-65
2021/04/18 14:01:19;;;;;;;5.70;4.53;;;;;;;22.11;45.46;100590.64;1858919;77;25515;-65
2021/04/18 14:03:45;;;;;;;5.97;4.65;;;;;;;22.02;45.07;100590.97;1859161;77;25892;-64
2021/04/18 14:06:13;;;;;;;4.70;4.15;;;;;;;22.00;44.73;100589.19;1860540;76;25480;-65
2021/04/18 14:08:39;;;;;;;5.10;4.37;;;;;;;21.88;44.62;100581.99;1854888;76;25483;-65
2021/04/18 14:11:07;;;;;;;5.67;4.28;;;;;;;21.73;44.67;100588.53;1825508;78;25270;-65
2021/04/18 14:13:34;;;;;;;5.08;4.45;;;;;;;21.53;44.68;100587.33;1850623;77;25590;-64
2021/04/18 14:16:02;;;;;;;4.80;4.33;;;;;;;21.24;44.40;100581.47;1859126;77;26615;-66
2021/04/18 14:18:30;;;;;;;4.50;4.00;;;;;;;20.85;44.05;100579.59;1858980;77;25580;-66
2021/04/18 14:20:58;;;;;;;4.95;4.53;;;;;;;20.58;44.40;100581.54;1851283;77;25913;-66
2021/04/18 14:23:24;;;;;;;6.30;4.55;;;;;;;20.32;45.08;100578.41;1845642;76;25508;-66
2021/04/18 14:25:51;;;;;;;7.37;4.65;;;;;;;20.10;45.42;100580.59;1848095;76;25435;-66
2021/04/18 14:28:18;;;;;;;6.03;5.10;;;;;;;19.86;45.72;100581.17;1827519;77;25866;-66
2021/04/18 14:30:45;;;;;;;5.05;4.55;;;;;;;19.57;45.69;100584.73;1820374;77;25598;-65
2021/04/18 14:33:12;;;;;;;6.03;5.03;;;;;;;19.35;46.36;100582.14;1802939;78;25503;-66
2021/04/18 14:35:38;;;;;;;5.65;5.00;;;;;;;19.22;47.10;100583.44;1807008;78;25542;-66
2021/04/18 14:38:06;;;;;;;6.65;4.97;;;;;;;19.02;47.11;100587.55;1803787;78;25588;-66
2021/04/18 14:40:34;;;;;;;7.15;5.75;;;;;;;18.81;47.32;100591.16;1803005;78;25690;-66
2021/04/18 14:43:01;;;;;;;6.90;5.87;;;;;;;18.61;47.56;100580.17;1792432;80;25546;-67
2021/04/18 14:45:28;;;;;;;9.05;5.28;;;;;;;18.41;48.19;100586.74;1791564;80;25648;-67
2021/04/18 14:47:56;;;;;;;6.53;5.40;;;;;;;18.19;47.53;100588.95;1792234;80;25458;-65
2021/04/18 14:50:23;;;;;;;5.90;5.12;;;;;;;18.00;48.19;100590.23;1792265;80;25487;-68
2021/04/18 14:52:50;;;;;;;9.03;5.15;;;;;;;17.86;48.72;100591.98;1791970;80;25705;-68
2021/04/18 14:55:17;;;;;;;6.95;5.37;;;;;;;17.72;48.81;100593.77;1792156;80;25323;-69
2021/04/18 14:57:46;;;;;;;7.45;5.25;;;;;;;17.53;49.25;100589.75;1811544;77;26407;-68
2021/04/18 15:00:22;;;;;;;6.67;6.03;;;;;;;17.38;49.35;100596.55;1769429;80;25657;-68
2021/04/18 15:02:49;;;;;;;6.37;5.75;;;;;;;17.20;49.56;100589.19;1755423;81;25463;-68
2021/04/18 15:05:17;;;;;;;6.65;5.95;;;;;;;17.05;49.88;100596.98;1754844;81;25775;-69
2021/04/18 15:07:45;;;;;;;7.10;6.17;;;;;;;16.92;50.24;100585.85;1763841;81;25538;-69
2021/04/18 15:10:13;;;;;;;9.73;6.30;;;;;;;16.78;50.48;100586.19;1792191;79;25585;-69
2021/04/18 15:12:41;;;;;;;8.03;6.78;;;;;;;16.66;51.00;100593.83;1792357;79;25562;-67
2021/04/18 15:15:09;;;;;;;8.75;5.90;;;;;;;16.57;51.20;100583.02;1792391;79;25531;-68
2021/04/18 15:17:36;;;;;;;6.72;5.83;;;;;;;16.50;51.25;100588.27;1786933;79;26597;-69
2021/04/18 15:20:06;;;;;;;9.18;7.12;;;;;;;16.43;51.37;100586.69;1783751;79;25694;-70
2021/04/18 15:22:32;;;;;;;11.55;8.53;;;;;;;16.36;51.94;100584.52;1784891;79;32805;-68
2021/04/18 15:24:59;;;;;;;10.85;6.80;;;;;;;16.31;52.17;100585.30;1751529;79;25565;-71
2021/04/18 15:27:26;;;;;;;7.25;6.28;;;;;;;16.24;52.43;100580.39;1808197;78;25596;-72
2021/04/18 15:29:53;;;;;;;8.70;6.87;;;;;;;16.20;52.64;100577.55;1804727;78;26704;-71
2021/04/18 15:32:20;;;;;;;6.67;5.95;;;;;;;16.17;52.86;100574.14;1785097;79;25815;-70
2021/04/18 15:34:47;;;;;;;8.53;6.42;;;;;;;16.19;53.08;100575.16;1779898;79;25514;-70
2021/04/18 15:37:17;;;;;;;9.18;6.80;;;;;;;16.17;53.03;100576.86;1794555;79;25500;-70
2021/04/18 15:39:47;;;;;;;7.33;6.35;;;;;;;16.14;53.24;100576.75;1797390;79;25691;-71
2021/04/18 15:42:14;;;;;;;8.30;5.97;;;;;;;16.12;53.37;100575.72;1774700;79;25760;-71
2021/04/18 15:44:42;;;;;;;8.30;6.78;;;;;;;16.06;53.19;100573.80;1766013;80;25527;-69
2021/04/18 15:47:10;;;;;;;7.67;6.40;;;;;;;16.01;53.35;100574.02;1779060;78;25230;-70
2021/04/18 15:49:36;;;;;;;9.83;6.30;;;;;;;15.97;53.59;100573.66;1797106;79;25423;-66
2021/04/18 15:52:04;;;;;;;8.35;6.28;;;;;;;15.91;53.53;100565.48;1793160;79;25177;-67
2021/04/18 15:54:31;;;;;;;8.78;6.70;;;;;;;15.84;53.83;100573.64;1776098;79;25683;-67
2021/04/18 15:56:59;;;;;;;8.70;7.08;;;;;;;15.79;53.90;100579.88;1798020;79;25560;-67
2021/04/18 15:59:27;;;;;;;9.38;7.45;;;;;;;15.72;54.01;100574.16;1797855;79;25465;-68
2021/04/18 16:01:57;;;;;;;9.55;7.45;;;;;;;15.65;54.07;100578.80;1797866;79;25451;-68
2021/04/18 16:04:28;;;;;;;9.53;6.67;;;;;;;15.61;54.14;100571.04;1815141;78;25595;-67
2021/04/18 16:06:58;;;;;;;10.63;7.80;;;;;;;15.54;54.60;100570.22;1828130;78;25908;-67
2021/04/18 16:09:26;;;;;;;9.00;7.00;;;;;;;15.49;54.39;100574.52;1829290;78;25395;-66
2021/04/18 16:11:55;;;;;;;8.98;7.45;;;;;;;15.45;54.82;100569.52;1830573;78;25298;-69
2021/04/18 16:14:22;;;;;;;10.80;7.80;;;;;;;15.40;54.96;100571.88;1802600;78;25340;-69
2021/04/18 16:16:52;;;;;;;9.60;8.00;;;;;;;15.36;54.99;100573.69;1830600;78;25612;-69
2021/04/18 16:19:21;;;;;;;9.80;7.47;;;;;;;15.34;55.08;100571.88;1830495;78;25773;-69
2021/04/18 16:21:50;;;;;;;10.50;8.30;;;;;;;15.30;55.34;100574.44;1830571;78;26357;-70
2021/04/18 16:24:18;;;;;;;11.35;8.38;;;;;;;15.27;55.62;100575.13;1830566;78;25461;-67
2021/04/18 16:26:45;;;;;;;10.03;8.50;;;;;;;15.24;55.77;100576.37;1781138;79;25404;-69
2021/04/18 16:29:14;;;;;;;10.85;8.43;;;;;;;15.19;55.82;100575.18;1794794;79;25309;-70
2021/04/18 16:31:41;;;;;;;9.23;7.58;;;;;;;15.12;55.75;100571.66;1795127;79;25695;-69
2021/04/18 16:34:07;;;;;;;10.18;7.85;;;;;;;15.04;55.91;100580.69;1796016;79;25178;-69
2021/04/18 16:36:34;;;;;;;8.75;7.83;;;;;;;14.98;56.02;100577.91;1795689;80;25570;-68
2021/04/18 16:39:03;;;;;;;10.18;8.13;;;;;;;14.92;56.24;100575.39;1795829;79;25506;-70
2021/04/18 16:41:30;;;;;;;11.75;8.20;;;;;;;14.85;56.52;100573.77;1794759;79;25327;-68
2021/04/18 16:43:57;;;;;;;11.22;7.97;;;;;;;14.77;56.49;100580.05;1794771;79;26161;-67
2021/04/18 16:46:24;;;;;;;11.05;8.18;;;;;;;14.68;56.62;100573.88;1794806;80;25289;-68
2021/04/18 16:48:51;;;;;;;13.95;8.10;;;;;;;14.61;57.11;100572.22;1794835;79;25318;-68
2021/04/18 16:51:18;;;;;;;11.10;8.40;;;;;;;14.54;57.31;100577.60;1793244;80;25598;-67
2021/04/18 16:53:45;;;;;;;10.43;8.13;;;;;;;14.50;57.57;100578.58;1785904;80;25285;-69
2021/04/18 16:56:11;;;;;;;11.75;8.60;;;;;;;14.44;57.80;100579.87;1787160;80;25695;-69
2021/04/18 16:58:38;;;;;;;13.03;9.58;;;;;;;14.39;58.01;100575.44;1786065;79;25370;-69
2021/04/18 17:01:05;;;;;;;12.03;9.00;;;;;;;14.32;58.04;100577.85;1786195;79;25296;-69
2021/04/18 17:03:31;;;;;;;16.93;10.65;;;;;;;14.25;58.11;100575.67;1782085;80;25537;-68
2021/04/18 17:05:58;;;;;;;11.85;9.88;;;;;;;14.19;58.39;100581.83;1781868;80;25671;-68
2021/04/18 17:08:25;;;;;;;11.65;9.30;;;;;;;14.12;58.49;100581.55;1780282;79;25705;-68
2021/04/18 17:10:52;;;;;;;13.90;10.40;;;;;;;14.05;58.79;100575.81;1786390;80;25272;-68
2021/04/18 17:13:19;;;;;;;16.00;12.60;;;;;;;13.99;58.89;100581.97;1782926;80;25646;-68
2021/04/18 17:15:47;;;;;;;15.05;11.10;;;;;;;13.91;58.89;100578.74;1783568;80;25608;-68
2021/04/18 17:18:14;;;;;;;17.57;11.25;;;;;;;13.86;59.22;100584.36;1781724;79;25584;-69
2021/04/18 17:20:41;;;;;;;19.32;12.93;;;;;;;13.78;59.55;100583.23;1786451;80;25765;-69
2021/04/18 17:23:08;;;;;;;16.77;12.37;;;;;;;13.71;59.77;100585.66;1784556;79;25627;-68
2021/04/18 17:25:36;;;;;;;13.85;9.68;;;;;;;13.62;60.01;100585.67;1781076;80;25481;-72
2021/04/18 17:28:04;;;;;;;12.45;9.43;;;;;;;13.52;60.54;100593.34;1722096;81;25784;-71
2021/04/18 17:30:34;;;;;;;14.05;9.33;;;;;;;13.41;60.98;100586.88;1750063;80;25520;-71
2021/04/18 17:33:01;;;;;;;12.03;9.35;;;;;;;13.27;61.23;100586.23;1756042;81;25981;-71
2021/04/18 17:35:28;;;;;;;14.18;9.60;;;;;;;13.14;61.16;100592.05;1757735;79;25688;-71